Time;durP1;ratioP1;P1;durP2;ratioP2;P2;SDS_P1;SDS_P2;PMS_P1;PMS_P2;Temp;Humidity;BMP_temperature;BMP_pressure;BME280_temperature;BME280_humidity;BME280_pressure;Samples;Min_cycle;Max_cycle;Signal;HPM_P1;HPM_P2
2022/04/29 00:02:15;;;;;;;3.63;0.60;;;12.90;52.60;;;;;;5090858;28;20044;-69
2022/04/29 00:04:42;;;;;;;1.63;0.70;;;12.90;52.60;;;;;;5073745;28;20043;-65
2022/04/29 00:07:09;;;;;;;2.20;0.60;;;12.90;52.70;;;;;;5090941;28;20055;-71
2022/04/29 00:09:36;;;;;;;2.78;0.60;;;12.90;52.70;;;;;;5091032;28;20044;-65
2022/04/29 00:12:03;;;;;;;1.80;0.60;;;12.90;52.70;;;;;;5092143;28;20403;-68
2022/04/29 00:14:30;;;;;;;2.05;0.52;;;12.90;52.70;;;;;;5092240;28;20040;-69
2022/04/29 00:16:55;;;;;;;1.42;0.50;;;12.90;52.70;;;;;;5090699;28;20048;-70
2022/04/29 00:19:21;;;;;;;2.03;0.60;;;12.90;52.70;;;;;;5092222;28;20044;-69
2022/04/29 00:21:47;;;;;;;2.20;0.75;;;12.90;52.80;;;;;;5090413;28;20055;-70
2022/04/29 00:24:13;;;;;;;1.45;0.50;;;12.90;52.80;;;;;;5090699;28;20062;-65
2022/04/29 00:26:39;;;;;;;1.45;0.50;;;12.90;52.80;;;;;;5090795;28;20092;-69
2022/04/29 00:29:06;;;;;;;1.83;0.70;;;12.80;52.70;;;;;;5090914;28;20040;-70
2022/04/29 00:31:33;;;;;;;2.70;0.90;;;12.90;52.80;;;;;;5090846;28;20048;-69
2022/04/29 00:33:59;;;;;;;2.38;1.00;;;12.90;52.80;;;;;;5090852;28;20078;-70
2022/04/29 00:36:25;;;;;;;2.50;0.88;;;12.90;52.80;;;;;;5090467;28;20044;-70
2022/04/29 00:38:51;;;;;;;1.95;0.88;;;12.80;52.80;;;;;;5090548;28;20036;-69
2022/04/29 00:41:18;;;;;;;2.35;1.15;;;12.90;52.80;;;;;;5091716;28;20403;-70
2022/04/29 00:43:43;;;;;;;1.98;0.85;;;12.80;52.80;;;;;;5090517;28;20097;-68
2022/04/29 00:46:10;;;;;;;2.17;1.05;;;12.80;52.80;;;;;;5090454;28;20076;-65
2022/04/29 00:48:36;;;;;;;2.25;1.00;;;12.80;52.80;;;;;;5090496;28;20062;-65
2022/04/29 00:51:03;;;;;;;2.42;0.70;;;12.80;52.80;;;;;;5090690;28;20120;-70
2022/04/29 00:53:30;;;;;;;2.00;0.80;;;12.80;52.80;;;;;;5090696;28;20398;-68
2022/04/29 00:55:57;;;;;;;1.98;0.70;;;12.80;52.80;;;;;;5091571;28;20495;-69
2022/04/29 00:58:32;;;;;;;1.30;0.98;;;12.80;52.80;;;;;;5091663;28;20051;-64
2022/04/29 01:01:01;;;;;;;2.97;1.13;;;12.80;52.80;;;;;;5090328;28;20047;-69
2022/04/29 01:03:28;;;;;;;1.67;1.17;;;12.80;52.80;;;;;;5091486;28;20534;-70
2022/04/29 01:05:54;;;;;;;2.13;0.50;;;12.80;52.80;;;;;;5091524;28;20502;-64
2022/04/29 01:08:20;;;;;;;2.20;0.90;;;12.80;53.00;;;;;;5090528;28;20416;-65
2022/04/29 01:10:47;;;;;;;2.10;0.60;;;12.80;52.70;;;;;;5090195;28;20039;-70
2022/04/29 01:13:14;;;;;;;1.75;0.80;;;12.70;52.60;;;;;;5090164;28;20055;-69
2022/04/29 01:15:40;;;;;;;2.25;0.90;;;12.70;52.60;;;;;;5090188;28;20487;-70
2022/04/29 01:18:08;;;;;;;1.65;0.80;;;12.70;53.40;;;;;;5090308;28;20044;-69
2022/04/29 01:20:35;;;;;;;2.70;0.68;;;12.70;52.60;;;;;;5091483;28;20507;-66
2022/04/29 01:23:12;;;;;;;3.03;1.10;;;12.70;52.60;;;;;;5089855;28;20055;-69
2022/04/29 01:25:39;;;;;;;2.05;0.57;;;12.70;52.70;;;;;;5090362;28;20055;-71
2022/04/29 01:28:05;;;;;;;1.80;0.90;;;12.70;52.70;;;;;;5091721;28;20032;-64
2022/04/29 01:30:34;;;;;;;1.67;0.77;;;12.70;52.70;;;;;;5092633;28;20059;-70
2022/04/29 01:33:01;;;;;;;2.17;0.63;;;12.70;52.60;;;;;;5093654;28;20047;-71
2022/04/29 01:35:27;;;;;;;1.60;0.80;;;12.70;52.60;;;;;;5093967;28;20059;-69
2022/04/29 01:37:53;;;;;;;1.98;0.73;;;12.70;52.60;;;;;;5093738;28;20495;-69
2022/04/29 01:40:18;;;;;;;1.50;0.80;;;12.70;52.60;;;;;;5095001;28;20059;-65
2022/04/29 01:42:44;;;;;;;2.33;0.82;;;12.60;52.50;;;;;;5093454;28;20094;-67
2022/04/29 01:45:11;;;;;;;2.10;0.60;;;12.70;52.60;;;;;;5093558;28;20117;-70
2022/04/29 01:47:37;;;;;;;2.67;0.93;;;12.70;52.60;;;;;;5093650;28;20115;-66
2022/04/29 01:50:03;;;;;;;1.05;0.50;;;12.60;52.50;;;;;;5093608;28;20519;-65
2022/04/29 01:52:29;;;;;;;3.28;1.20;;;12.60;52.50;;;;;;5094513;28;20098;-70
2022/04/29 01:54:54;;;;;;;2.03;0.73;;;12.60;52.60;;;;;;5093233;28;20044;-65
2022/04/29 01:57:23;;;;;;;2.05;0.50;;;12.60;52.50;;;;;;5093190;28;20048;-69
2022/04/29 01:59:49;;;;;;;1.67;0.80;;;12.60;52.50;;;;;;5094611;28;20040;-69
2022/04/29 02:02:16;;;;;;;1.92;0.50;;;12.60;52.50;;;;;;5094383;28;20047;-69
2022/04/29 02:04:42;;;;;;;4.55;0.80;;;12.60;52.50;;;;;;5093086;28;20107;-70
2022/04/29 02:07:07;;;;;;;3.80;0.80;;;12.50;52.50;;;;;;5093087;28;20142;-68
2022/04/29 02:09:33;;;;;;;1.35;0.50;;;12.50;52.40;;;;;;5093141;28;20044;-70
2022/04/29 02:12:06;;;;;;;1.17;0.77;;;12.60;52.50;;;;;;5093099;28;20391;-67
2022/04/29 02:17:13;;;;;;;2.50;0.70;;;12.60;52.50;;;;;;5130291;27;20447;-64
2022/04/29 02:19:39;;;;;;;2.38;0.80;;;12.60;52.50;;;;;;5129179;28;20047;-69
2022/04/29 02:22:08;;;;;;;2.00;0.88;;;12.50;52.50;;;;;;5128876;28;20047;-69
2022/04/29 02:24:33;;;;;;;1.80;0.63;;;12.50;52.40;;;;;;5128930;28;20043;-69
2022/04/29 02:27:00;;;;;;;2.30;0.73;;;12.50;52.50;;;;;;5130556;28;20051;-69
2022/04/29 02:29:27;;;;;;;1.77;0.77;;;12.50;52.40;;;;;;5145937;27;20054;-69
2022/04/29 02:31:54;;;;;;;1.88;0.75;;;12.50;52.40;;;;;;5130137;27;20114;-69
2022/04/29 02:34:19;;;;;;;1.42;0.50;;;12.50;52.50;;;;;;5129947;27;20050;-69
2022/04/29 02:36:45;;;;;;;3.30;0.65;;;12.40;52.40;;;;;;5129793;28;20058;-65
2022/04/29 02:39:11;;;;;;;3.40;0.98;;;12.50;52.50;;;;;;5129915;27;20036;-69
2022/04/29 02:41:37;;;;;;;1.98;0.52;;;12.40;52.50;;;;;;5130183;28;20460;-69
2022/04/29 02:44:03;;;;;;;3.13;0.68;;;12.50;52.50;;;;;;5128457;28;20035;-69
2022/04/29 02:46:29;;;;;;;1.70;0.60;;;12.40;52.50;;;;;;5129704;27;20047;-65
2022/04/29 02:48:54;;;;;;;1.80;0.68;;;12.40;52.50;;;;;;5128521;27;20204;-69
2022/04/29 02:51:20;;;;;;;0.95;0.52;;;12.40;52.50;;;;;;5128664;28;20043;-64
2022/04/29 02:53:46;;;;;;;1.45;0.77;;;12.40;52.50;;;;;;5129620;27;20127;-70
2022/04/29 02:56:14;;;;;;;1.98;0.57;;;12.40;52.50;;;;;;5128286;28;20047;-69
2022/04/29 02:58:40;;;;;;;1.55;0.75;;;12.50;52.60;;;;;;5145406;27;20372;-65
2022/04/29 03:01:06;;;;;;;2.33;0.68;;;12.40;52.50;;;;;;5128246;28;20046;-69
2022/04/29 03:03:31;;;;;;;2.10;0.68;;;12.40;52.50;;;;;;5129525;28;20042;-69
2022/04/29 03:05:57;;;;;;;2.72;0.73;;;12.40;52.50;;;;;;5128052;28;20043;-69
2022/04/29 03:08:23;;;;;;;3.42;0.73;;;12.40;52.50;;;;;;5129294;27;20050;-71
2022/04/29 03:10:48;;;;;;;1.65;0.82;;;12.40;52.50;;;;;;5127940;28;20399;-65
2022/04/29 03:13:15;;;;;;;1.50;0.60;;;12.30;52.40;;;;;;5128080;28;20087;-68
2022/04/29 03:15:40;;;;;;;1.35;0.70;;;12.40;52.50;;;;;;5127597;28;20108;-69
2022/04/29 03:18:22;;;;;;;2.33;1.02;;;12.30;52.50;;;;;;5128060;28;20417;-69
2022/04/29 03:20:50;;;;;;;1.70;1.00;;;12.40;52.50;;;;;;5127949;28;20076;-64
2022/04/29 03:23:16;;;;;;;1.70;0.70;;;12.30;52.50;;;;;;5129225;27;20110;-69
2022/04/29 03:25:41;;;;;;;4.93;1.33;;;12.30;52.50;;;;;;5127913;28;20134;-69
2022/04/29 03:28:08;;;;;;;1.63;0.80;;;12.30;52.50;;;;;;5117831;28;20479;-69
2022/04/29 03:30:34;;;;;;;1.52;0.70;;;12.30;52.50;;;;;;5113935;28;20096;-69
2022/04/29 03:33:01;;;;;;;1.55;0.82;;;12.30;52.50;;;;;;5115301;28;20117;-69
2022/04/29 03:35:27;;;;;;;2.38;0.80;;;12.30;52.50;;;;;;5113875;28;20466;-65
2022/04/29 03:37:53;;;;;;;2.03;0.80;;;12.30;52.50;;;;;;5130950;27;20144;-69
2022/04/29 03:40:21;;;;;;;2.88;0.80;;;12.30;52.50;;;;;;5113762;28;20039;-65
2022/04/29 03:42:53;;;;;;;1.92;0.70;;;12.30;52.50;;;;;;5115005;28;20554;-69
2022/04/29 03:45:20;;;;;;;2.70;0.60;;;12.30;52.50;;;;;;5113669;28;20040;-65
2022/04/29 03:47:46;;;;;;;2.78;0.93;;;12.30;52.60;;;;;;5114887;28;20081;-70
2022/04/29 03:50:15;;;;;;;1.63;0.70;;;12.30;52.50;;;;;;5113542;28;20048;-71
2022/04/29 03:52:49;;;;;;;1.80;0.63;;;12.20;52.40;;;;;;5113165;28;20036;-69
2022/04/29 03:55:17;;;;;;;1.33;1.20;;;12.30;52.50;;;;;;5114842;28;20048;-69
2022/04/29 03:57:42;;;;;;;2.08;0.80;;;12.30;52.50;;;;;;5114939;28;20126;-68
2022/04/29 04:00:09;;;;;;;2.92;1.23;;;12.20;52.50;;;;;;5113410;28;20119;-69
2022/04/29 04:02:35;;;;;;;2.80;0.75;;;12.30;52.50;;;;;;5113453;28;20051;-69
2022/04/29 04:05:01;;;;;;;0.90;0.52;;;12.20;52.50;;;;;;5114995;28;20031;-69
2022/04/29 04:07:29;;;;;;;1.10;0.50;;;12.20;52.50;;;;;;5113161;28;20036;-69
2022/04/29 04:09:55;;;;;;;1.88;0.77;;;12.20;52.50;;;;;;5113184;28;20066;-65
2022/04/29 04:12:20;;;;;;;3.53;0.88;;;12.20;52.50;;;;;;5112995;28;20073;-69
2022/04/29 04:14:46;;;;;;;2.35;0.77;;;12.20;52.50;;;;;;5114396;28;20051;-69
2022/04/29 04:17:12;;;;;;;2.28;1.17;;;12.20;52.50;;;;;;5114068;28;20517;-69
2022/04/29 04:19:37;;;;;;;0.82;0.50;;;12.20;52.50;;;;;;5112918;28;20084;-64
2022/04/29 04:22:04;;;;;;;1.17;1.00;;;12.20;52.50;;;;;;5114415;28;20035;-69
2022/04/29 04:24:30;;;;;;;2.65;1.00;;;12.20;52.50;;;;;;5112876;28;20085;-70
2022/04/29 04:26:56;;;;;;;2.05;0.70;;;12.20;52.60;;;;;;5113126;28;20048;-67
2022/04/29 04:29:21;;;;;;;1.98;0.80;;;12.20;52.50;;;;;;5112806;28;20040;-69
2022/04/29 04:31:47;;;;;;;1.58;0.70;;;12.20;52.50;;;;;;5112764;28;20046;-69
2022/04/29 04:37:03;;;;;;;1.92;0.82;;;12.20;52.50;;;;;;5113772;28;20051;-66
2022/04/29 04:39:29;;;;;;;1.90;1.30;;;12.20;52.50;;;;;;5111508;28;20051;-64
2022/04/29 04:41:55;;;;;;;2.38;0.70;;;12.20;52.50;;;;;;5112579;28;20035;-64
2022/04/29 04:44:20;;;;;;;2.28;0.70;;;12.20;53.00;;;;;;5113829;28;20043;-66
2022/04/29 04:46:46;;;;;;;1.90;0.93;;;12.20;52.50;;;;;;5113724;28;20111;-66
2022/04/29 04:49:13;;;;;;;1.40;0.63;;;12.20;52.50;;;;;;5113587;28;20501;-69
2022/04/29 04:51:41;;;;;;;3.92;1.05;;;12.20;52.40;;;;;;5112529;28;20042;-71
2022/04/29 04:54:07;;;;;;;2.53;0.90;;;12.30;52.50;;;;;;5112245;28;20032;-69
2022/04/29 04:56:32;;;;;;;1.85;1.02;;;12.20;52.40;;;;;;5112253;28;20039;-69
2022/04/29 04:58:58;;;;;;;2.30;0.93;;;12.20;52.40;;;;;;5112382;28;20391;-69
2022/04/29 05:01:24;;;;;;;1.52;0.60;;;12.20;52.40;;;;;;5112228;28;20043;-64
2022/04/29 05:03:49;;;;;;;1.80;0.75;;;12.20;52.40;;;;;;5112002;28;20039;-69
2022/04/29 05:06:15;;;;;;;2.40;0.88;;;12.20;52.40;;;;;;5112433;28;20070;-64
2022/04/29 05:08:41;;;;;;;2.20;0.70;;;12.20;52.40;;;;;;5113624;28;20529;-65
2022/04/29 05:11:06;;;;;;;1.98;0.70;;;12.20;52.30;;;;;;5113263;28;20046;-70
2022/04/29 05:13:32;;;;;;;1.83;1.13;;;12.20;52.30;;;;;;5112220;28;20455;-69
2022/04/29 05:15:57;;;;;;;1.60;0.60;;;12.20;52.30;;;;;;5111721;28;20221;-65
2022/04/29 05:18:23;;;;;;;1.55;0.70;;;12.30;52.30;;;;;;5111725;28;20475;-66
2022/04/29 05:20:49;;;;;;;1.05;0.63;;;12.20;52.20;;;;;;5113041;28;20031;-69
2022/04/29 05:23:15;;;;;;;4.13;0.80;;;12.30;52.30;;;;;;5111728;28;20031;-65
2022/04/29 05:25:40;;;;;;;3.42;1.42;;;12.30;52.30;;;;;;5111668;28;20036;-69
2022/04/29 05:28:07;;;;;;;1.67;1.08;;;12.30;52.30;;;;;;5111731;28;20050;-69
2022/04/29 05:30:37;;;;;;;2.28;1.00;;;12.30;52.30;;;;;;5111598;28;20044;-65
2022/04/29 05:33:03;;;;;;;1.35;0.55;;;12.30;52.30;;;;;;5111799;28;20490;-65
2022/04/29 05:35:29;;;;;;;2.97;0.75;;;12.30;52.20;;;;;;5111631;28;20071;-65
2022/04/29 05:37:55;;;;;;;3.05;0.68;;;12.30;52.30;;;;;;5112871;28;20112;-69
2022/04/29 05:43:07;;;;;;;2.17;1.02;;;12.30;52.30;;;;;;5112564;28;20046;-71
2022/04/29 05:45:33;;;;;;;2.00;0.70;;;12.30;52.30;;;;;;5111566;28;20395;-71
2022/04/29 05:47:59;;;;;;;2.00;0.55;;;12.30;52.30;;;;;;5111076;28;20048;-64
2022/04/29 05:50:24;;;;;;;0.95;0.60;;;12.30;52.30;;;;;;5111086;28;20039;-70
2022/04/29 05:52:50;;;;;;;2.35;0.70;;;12.30;52.30;;;;;;5111553;28;20031;-70
2022/04/29 05:55:16;;;;;;;2.05;0.77;;;12.30;52.30;;;;;;5111423;28;20501;-64
2022/04/29 05:57:44;;;;;;;1.38;0.90;;;12.40;52.30;;;;;;5095002;28;20039;-71
2022/04/29 06:00:13;;;;;;;1.55;0.70;;;12.30;52.20;;;;;;5112519;28;20035;-71
2022/04/29 06:02:39;;;;;;;2.53;0.60;;;12.40;52.30;;;;;;5112325;28;20035;-71
2022/04/29 06:05:05;;;;;;;3.28;0.68;;;12.40;52.20;;;;;;5111144;28;20399;-64
2022/04/29 06:07:31;;;;;;;2.30;0.75;;;12.40;52.20;;;;;;5111349;28;20035;-71
2022/04/29 06:09:57;;;;;;;1.48;0.63;;;12.40;52.20;;;;;;5111353;28;20437;-64
2022/04/29 06:12:22;;;;;;;1.50;0.77;;;12.40;52.10;;;;;;5112374;28;20391;-66
2022/04/29 06:14:48;;;;;;;2.08;0.60;;;12.40;52.10;;;;;;5111079;28;20039;-71
2022/04/29 06:17:14;;;;;;;2.00;1.27;;;12.40;52.10;;;;;;5112343;28;20055;-71
2022/04/29 06:19:43;;;;;;;1.73;0.82;;;12.40;52.10;;;;;;5111276;28;20089;-65
2022/04/29 06:22:09;;;;;;;1.50;0.77;;;12.40;52.00;;;;;;5110878;28;20475;-64
2022/04/29 06:24:35;;;;;;;2.92;0.80;;;12.50;52.00;;;;;;5110934;28;20047;-65
2022/04/29 06:27:02;;;;;;;1.92;0.80;;;12.50;52.00;;;;;;5111127;28;20028;-71
2022/04/29 06:29:27;;;;;;;1.42;0.90;;;12.50;52.00;;;;;;5110713;28;20398;-64
2022/04/29 06:31:53;;;;;;;2.50;0.70;;;12.50;52.00;;;;;;5111864;28;20032;-68
2022/04/29 06:34:22;;;;;;;2.13;0.80;;;12.50;52.10;;;;;;5110886;28;20044;-64
2022/04/29 06:36:48;;;;;;;2.30;0.60;;;12.50;52.20;;;;;;5110518;28;20044;-67
2022/04/29 06:39:13;;;;;;;1.60;0.80;;;12.50;52.20;;;;;;5112115;28;20040;-70
2022/04/29 06:41:41;;;;;;;5.93;1.50;;;12.60;53.50;;;;;;5110280;28;20051;-70
2022/04/29 06:44:10;;;;;;;2.50;0.93;;;12.60;54.30;;;;;;5110377;28;20051;-66
2022/04/29 06:46:35;;;;;;;2.55;0.82;;;12.70;54.90;;;;;;5110565;28;20047;-65
2022/04/29 06:49:04;;;;;;;2.65;0.90;;;12.70;55.00;;;;;;5110677;28;20047;-65
2022/04/29 06:51:29;;;;;;;3.13;0.73;;;12.80;55.10;;;;;;5111396;28;20036;-70
2022/04/29 06:53:55;;;;;;;2.35;0.85;;;12.80;55.10;;;;;;5110592;28;20043;-69
2022/04/29 06:56:24;;;;;;;1.92;0.70;;;12.90;55.20;;;;;;5111212;28;20107;-70
2022/04/29 06:58:50;;;;;;;2.00;0.55;;;12.90;55.30;;;;;;5110624;28;20047;-65
2022/04/29 07:01:19;;;;;;;1.95;1.17;;;13.00;55.30;;;;;;5110899;28;20042;-70
2022/04/29 07:03:45;;;;;;;2.83;1.00;;;13.00;55.10;;;;;;5113826;28;20046;-70
2022/04/29 07:06:11;;;;;;;2.33;0.55;;;13.00;55.30;;;;;;5115823;28;20039;-67
2022/04/29 07:08:36;;;;;;;3.83;0.98;;;13.00;55.50;;;;;;5114641;28;20044;-70
2022/04/29 07:11:02;;;;;;;1.95;0.90;;;13.00;55.50;;;;;;5114368;28;20051;-72
2022/04/29 07:13:28;;;;;;;5.07;1.42;;;13.00;55.30;;;;;;5114311;28;20053;-70
2022/04/29 07:15:54;;;;;;;1.60;0.90;;;13.00;55.10;;;;;;5115065;28;20047;-70
2022/04/29 07:18:20;;;;;;;1.77;0.93;;;13.00;55.10;;;;;;5113808;28;20039;-70
2022/04/29 07:20:46;;;;;;;1.73;0.82;;;13.00;55.10;;;;;;5113414;28;20127;-69
2022/04/29 07:23:15;;;;;;;3.28;0.77;;;13.00;54.90;;;;;;5114082;28;20134;-69
2022/04/29 07:25:41;;;;;;;3.30;1.02;;;13.10;54.90;;;;;;5115475;28;20024;-69
2022/04/29 07:28:07;;;;;;;2.38;0.90;;;13.00;54.70;;;;;;5114089;28;20043;-65
2022/04/29 07:30:33;;;;;;;3.15;0.88;;;13.00;54.60;;;;;;5114019;28;20040;-65
2022/04/29 07:32:59;;;;;;;3.08;0.93;;;13.00;54.40;;;;;;5113908;28;20108;-65
2022/04/29 07:43:43;;;;;;;2.88;0.70;;;13.10;54.00;;;;;;5113524;28;20035;-64
2022/04/29 07:46:12;;;;;;;2.00;0.50;;;13.10;53.80;;;;;;5114975;28;20050;-69
2022/04/29 07:48:39;;;;;;;1.85;0.70;;;13.10;53.70;;;;;;5113710;28;20050;-69
2022/04/29 07:51:04;;;;;;;1.45;0.60;;;13.20;53.60;;;;;;5113573;28;20075;-65
2022/04/29 07:53:30;;;;;;;2.03;0.73;;;13.20;53.40;;;;;;5113793;28;20086;-69
2022/04/29 07:55:56;;;;;;;2.47;0.50;;;13.20;53.40;;;;;;5113239;28;20492;-69
2022/04/29 07:58:21;;;;;;;2.00;0.40;;;13.20;53.30;;;;;;5113590;28;20036;-69
2022/04/29 08:00:48;;;;;;;1.33;0.90;;;13.20;53.20;;;;;;5114573;28;20499;-67
2022/04/29 08:03:13;;;;;;;1.42;0.60;;;13.20;52.90;;;;;;5113647;28;20078;-69
2022/04/29 08:05:39;;;;;;;2.38;0.63;;;13.30;52.90;;;;;;5113441;28;20043;-65
2022/04/29 08:08:05;;;;;;;1.98;0.50;;;13.30;52.70;;;;;;5114653;28;20403;-69
2022/04/29 08:10:32;;;;;;;2.40;0.68;;;13.30;52.60;;;;;;5113048;28;20101;-68
2022/04/29 08:12:59;;;;;;;1.40;0.50;;;13.40;52.50;;;;;;5113036;28;20039;-65
2022/04/29 08:15:26;;;;;;;1.90;0.60;;;13.40;52.30;;;;;;5112703;28;20131;-64
2022/04/29 08:17:52;;;;;;;1.30;0.52;;;13.40;52.30;;;;;;5113017;28;20483;-69
2022/04/29 08:20:19;;;;;;;1.60;0.63;;;13.40;52.30;;;;;;5112973;28;20040;-65
2022/04/29 08:22:44;;;;;;;2.10;0.95;;;13.40;52.20;;;;;;5114254;28;20047;-69
2022/04/29 08:25:10;;;;;;;1.23;0.57;;;13.50;52.20;;;;;;5112886;28;20050;-65
2022/04/29 08:27:36;;;;;;;1.67;0.77;;;13.50;52.10;;;;;;5112803;28;20044;-65
2022/04/29 08:30:06;;;;;;;2.10;0.70;;;13.50;51.90;;;;;;5113087;28;20074;-69
2022/04/29 08:32:47;;;;;;;2.13;0.73;;;13.60;51.90;;;;;;5113097;28;20121;-69
2022/04/29 08:35:13;;;;;;;0.75;0.40;;;13.60;51.80;;;;;;5114044;28;20100;-64
2022/04/29 08:37:41;;;;;;;1.73;0.70;;;13.60;51.70;;;;;;5112873;28;20054;-68
2022/04/29 08:40:09;;;;;;;1.83;0.68;;;13.60;51.50;;;;;;5112875;28;20035;-64
2022/04/29 08:42:37;;;;;;;2.13;0.50;;;13.70;51.50;;;;;;5112872;28;20035;-69
2022/04/29 08:45:06;;;;;;;1.45;0.50;;;13.80;51.40;;;;;;5112600;28;20051;-64
2022/04/29 08:47:36;;;;;;;0.70;0.60;;;13.80;51.20;;;;;;5112498;28;20117;-66
2022/04/29 08:50:04;;;;;;;1.35;0.57;;;13.90;51.30;;;;;;5112799;28;20491;-68
2022/04/29 08:52:30;;;;;;;1.88;0.60;;;13.90;51.20;;;;;;5112582;28;20054;-69
2022/04/29 09:00:42;;;;;;;1.63;0.30;;;14.00;50.40;;;;;;5111414;28;20039;-69
2022/04/29 09:05:54;;;;;;;4.18;1.00;;;14.20;50.00;;;;;;5130265;27;20375;-69
2022/04/29 09:08:24;;;;;;;1.38;0.40;;;14.20;49.90;;;;;;5129222;28;20381;-62
2022/04/29 09:10:56;;;;;;;1.90;0.77;;;14.20;49.70;;;;;;5129374;28;20447;-67
2022/04/29 09:13:24;;;;;;;1.85;0.40;;;14.20;49.80;;;;;;5128876;28;20039;-66
2022/04/29 09:21:24;;;;;;;1.20;0.50;;;14.30;49.70;;;;;;5155014;27;1159411;-65
2022/04/29 09:26:35;;;;;;;1.23;0.70;;;14.20;49.60;;;;;;5130222;27;20391;-62
2022/04/29 09:29:19;;;;;;;1.02;0.40;;;14.20;49.60;;;;;;5129168;28;20050;-62
2022/04/29 09:34:50;;;;;;;2.00;0.50;;;14.30;49.40;;;;;;5111605;27;1151744;-65
2022/04/29 09:37:19;;;;;;;2.97;0.50;;;14.30;49.30;;;;;;5111812;28;20064;-69
2022/04/29 09:42:41;;;;;;;1.10;0.45;;;14.30;49.30;;;;;;5109640;27;20292;-63
2022/04/29 09:45:20;;;;;;;0.82;0.50;;;14.40;49.10;;;;;;5108613;28;20048;-65
2022/04/29 09:47:53;;;;;;;1.45;0.50;;;14.50;48.90;;;;;;5108575;28;20479;-65
2022/04/29 09:50:19;;;;;;;0.80;0.50;;;14.60;48.70;;;;;;5108427;28;20072;-64
2022/04/29 09:52:45;;;;;;;2.17;0.60;;;14.60;48.50;;;;;;5108372;28;20086;-70
2022/04/29 09:55:14;;;;;;;1.08;0.30;;;14.60;48.40;;;;;;5108497;28;20127;-64
2022/04/29 10:00:28;;;;;;;1.60;0.50;;;14.70;48.40;;;;;;5109767;27;20302;-65
2022/04/29 10:02:55;;;;;;;0.70;0.40;;;14.60;48.40;;;;;;5108688;28;20070;-62
2022/04/29 10:05:22;;;;;;;1.65;0.40;;;14.60;48.50;;;;;;5108761;28;20032;-66
2022/04/29 10:07:49;;;;;;;1.45;0.68;;;14.50;48.60;;;;;;5108446;28;20032;-64
2022/04/29 10:10:16;;;;;;;2.60;0.70;;;14.50;48.70;;;;;;5108207;28;20511;-62
2022/04/29 10:12:47;;;;;;;0.82;0.30;;;14.50;48.70;;;;;;5109615;28;20071;-68
2022/04/29 10:15:16;;;;;;;1.38;0.40;;;14.50;48.70;;;;;;5108256;28;20480;-63
2022/04/29 10:23:16;;;;;;;1.65;0.50;;;14.40;48.70;;;;;;5107897;28;20505;-65
2022/04/29 10:25:44;;;;;;;1.23;0.50;;;14.40;48.70;;;;;;5110556;28;20087;-69
2022/04/29 10:28:15;;;;;;;2.22;0.40;;;14.40;48.70;;;;;;5111228;28;20036;-64
2022/04/29 10:30:41;;;;;;;1.13;0.50;;;14.40;48.70;;;;;;5110613;28;20441;-65
2022/04/29 10:35:53;;;;;;;1.40;0.60;;;14.40;48.80;;;;;;5131373;27;20460;-63
2022/04/29 10:38:27;;;;;;;1.13;0.40;;;14.30;48.70;;;;;;5130159;28;20043;-67
2022/04/29 10:46:39;;;;;;;1.90;0.45;;;14.40;48.80;;;;;;5152332;27;20113;-62
2022/04/29 10:49:27;;;;;;;1.33;0.30;;;14.40;48.70;;;;;;5130009;28;20043;-68
2022/04/29 10:57:15;;;;;;;0.98;0.40;;;14.40;48.60;;;;;;5110536;27;20404;-69
2022/04/29 11:00:00;;;;;;;1.27;0.30;;;14.40;48.60;;;;;;5109430;28;20092;-68
2022/04/29 11:02:30;;;;;;;1.92;0.50;;;14.40;48.50;;;;;;5109589;28;20048;-66
2022/04/29 11:04:59;;;;;;;0.65;0.43;;;14.40;49.20;;;;;;5109168;28;20058;-63
2022/04/29 11:10:16;;;;;;;1.05;0.40;;;14.40;48.40;;;;;;5152800;27;1179629;-63
2022/04/29 11:12:54;;;;;;;1.50;0.55;;;14.60;48.40;;;;;;5153046;27;20504;-68
2022/04/29 11:15:23;;;;;;;1.65;0.45;;;14.50;48.40;;;;;;5135839;27;20493;-68
2022/04/29 11:17:49;;;;;;;2.50;0.40;;;14.40;48.30;;;;;;5152922;27;20038;-69
2022/04/29 11:20:21;;;;;;;1.42;0.40;;;14.50;48.30;;;;;;5153067;27;20049;-63
2022/04/29 11:25:58;;;;;;;1.27;0.50;;;14.40;48.20;;;;;;5152670;27;20069;-68
2022/04/29 11:28:25;;;;;;;1.05;0.50;;;14.50;48.20;;;;;;5152762;27;20038;-63
2022/04/29 11:31:03;;;;;;;0.63;0.40;;;14.40;48.20;;;;;;5171710;27;20486;-68
2022/04/29 11:33:29;;;;;;;2.45;0.30;;;14.50;48.20;;;;;;5152715;27;20049;-63
2022/04/29 11:36:05;;;;;;;3.05;0.57;;;14.40;48.20;;;;;;5152693;27;20039;-66
2022/04/29 11:38:38;;;;;;;1.38;0.40;;;14.50;48.20;;;;;;5152871;27;20050;-63
2022/04/29 11:41:04;;;;;;;0.63;0.30;;;14.50;48.20;;;;;;5152630;27;20050;-67
2022/04/29 11:43:30;;;;;;;1.92;0.40;;;14.50;48.20;;;;;;5152758;27;20047;-63
2022/04/29 11:46:01;;;;;;;0.68;0.30;;;14.50;48.10;;;;;;5152702;27;20418;-62
2022/04/29 11:48:26;;;;;;;;;;;14.50;48.10;;;;;;5171517;27;20046;-63
2022/04/29 11:50:55;;;;;;;1.63;0.40;;;14.50;48.10;;;;;;5152213;27;19915;-66
2022/04/29 11:53:21;;;;;;;1.33;0.50;;;14.50;48.10;;;;;;5152192;27;20074;-70
2022/04/29 11:55:53;;;;;;;1.50;0.40;;;14.50;48.10;;;;;;5151198;27;20549;-65
2022/04/29 11:58:19;;;;;;;2.60;0.50;;;14.50;48.10;;;;;;5170829;27;20044;-69
2022/04/29 12:00:50;;;;;;;0.77;0.40;;;14.50;48.10;;;;;;5152467;27;20034;-69
2022/04/29 12:03:19;;;;;;;;;;;14.50;48.00;;;;;;5152770;27;20050;-63
2022/04/29 12:05:45;;;;;;;0.57;0.30;;;14.50;48.00;;;;;;5152199;27;20381;-67
2022/04/29 12:08:12;;;;;;;2.15;0.30;;;14.50;48.10;;;;;;5170368;27;20034;-69
2022/04/29 12:10:41;;;;;;;1.20;0.40;;;14.50;48.10;;;;;;5151930;27;20042;-64
2022/04/29 12:13:06;;;;;;;1.60;0.38;;;14.50;48.00;;;;;;5151995;27;20077;-70
2022/04/29 12:15:35;;;;;;;2.28;0.38;;;14.50;48.00;;;;;;5170695;27;20077;-64
2022/04/29 12:18:06;;;;;;;0.55;0.45;;;14.60;48.10;;;;;;5152087;27;20046;-66
2022/04/29 12:20:32;;;;;;;1.10;0.30;;;14.60;48.20;;;;;;5144017;27;20070;-64
2022/04/29 12:23:25;;;;;;;2.33;0.75;;;14.50;48.10;;;;;;5156535;27;20105;-68
2022/04/29 12:25:52;;;;;;;1.20;0.40;;;14.50;48.10;;;;;;5138240;27;20394;-63
2022/04/29 12:28:28;;;;;;;0.68;0.30;;;14.50;48.10;;;;;;5156455;27;20042;-63
2022/04/29 12:36:54;;;;;;;1.42;0.47;;;14.50;48.20;;;;;;5130304;27;20362;-64
2022/04/29 12:39:24;;;;;;;0.50;0.32;;;14.50;48.10;;;;;;5128958;28;20479;-63
2022/04/29 12:42:10;;;;;;;1.08;0.40;;;14.50;48.20;;;;;;5129204;28;20071;-67
2022/04/29 12:45:11;;;;;;;2.05;0.75;;;14.50;48.20;;;;;;5128805;28;20092;-64
2022/04/29 12:47:41;;;;;;;0.85;0.40;;;14.50;48.10;;;;;;5128909;28;20043;-63
2022/04/29 12:55:53;;;;;;;0.60;0.30;;;14.60;48.10;;;;;;5089359;28;20444;-68
2022/04/29 12:58:22;;;;;;;2.13;0.30;;;14.50;48.10;;;;;;5087997;28;20078;-67
2022/04/29 13:03:35;;;;;;;1.75;0.50;;;14.60;48.00;;;;;;5130286;27;20201;-62
2022/04/29 13:06:01;;;;;;;0.82;0.50;;;14.60;48.20;;;;;;5128962;27;20148;-65
2022/04/29 13:08:28;;;;;;;2.22;0.43;;;14.50;48.10;;;;;;5128935;28;20040;-68
2022/04/29 13:10:56;;;;;;;1.27;0.47;;;14.50;48.10;;;;;;5128801;28;20119;-68
2022/04/29 13:13:23;;;;;;;1.40;0.50;;;14.60;48.20;;;;;;5128860;28;20040;-69
2022/04/29 13:15:49;;;;;;;1.15;0.40;;;14.50;48.20;;;;;;5129251;28;20039;-69
2022/04/29 13:18:16;;;;;;;1.00;0.40;;;14.50;48.20;;;;;;5130059;27;20049;-64
2022/04/29 13:20:43;;;;;;;0.80;0.40;;;14.50;48.20;;;;;;5129060;28;20551;-62
2022/04/29 13:23:10;;;;;;;1.92;0.57;;;14.50;48.20;;;;;;5128524;28;20080;-69
2022/04/29 13:25:41;;;;;;;1.02;0.40;;;14.50;48.10;;;;;;5128441;28;20036;-63
2022/04/29 13:28:07;;;;;;;1.60;0.50;;;14.50;48.20;;;;;;5128906;28;20125;-67
2022/04/29 13:30:35;;;;;;;1.15;0.45;;;14.50;48.20;;;;;;5128524;28;20099;-64
2022/04/29 13:33:01;;;;;;;0.80;0.50;;;14.50;48.30;;;;;;5128718;28;20040;-63
2022/04/29 13:35:28;;;;;;;2.63;0.70;;;14.50;48.30;;;;;;5128380;28;20075;-68
2022/04/29 13:37:55;;;;;;;1.55;0.63;;;14.50;48.30;;;;;;5128676;28;20058;-72
2022/04/29 13:40:21;;;;;;;1.45;0.45;;;14.50;48.40;;;;;;5129514;27;20050;-69
2022/04/29 13:42:48;;;;;;;1.38;0.50;;;14.50;48.40;;;;;;5128247;28;20055;-64
2022/04/29 13:45:14;;;;;;;0.98;0.52;;;14.40;48.30;;;;;;5129752;27;20046;-62
2022/04/29 13:47:40;;;;;;;1.63;0.50;;;14.40;48.40;;;;;;5145614;27;20034;-63
2022/04/29 13:50:07;;;;;;;1.00;0.68;;;14.50;48.40;;;;;;5128191;28;20483;-63
2022/04/29 13:55:19;;;;;;;1.35;0.60;;;14.50;48.40;;;;;;5128144;28;20441;-69
2022/04/29 13:57:45;;;;;;;1.20;0.50;;;14.50;48.40;;;;;;5145194;27;20035;-64
2022/04/29 14:00:13;;;;;;;1.60;0.80;;;14.40;48.40;;;;;;5127612;28;20409;-68
2022/04/29 14:02:39;;;;;;;3.15;0.50;;;14.50;48.40;;;;;;5127618;28;20406;-69
2022/04/29 14:05:06;;;;;;;1.17;0.50;;;14.50;48.30;;;;;;5127897;28;20550;-69
2022/04/29 14:07:33;;;;;;;1.42;0.52;;;14.50;48.30;;;;;;5127752;28;20043;-63
2022/04/29 14:09:59;;;;;;;0.60;0.40;;;14.50;48.30;;;;;;5129006;28;20039;-69
2022/04/29 14:12:25;;;;;;;3.30;0.57;;;14.50;48.20;;;;;;5127694;28;20130;-69
2022/04/29 14:14:55;;;;;;;1.35;0.52;;;14.60;48.30;;;;;;5115557;28;20106;-66